Time;durP1;ratioP1;P1;durP2;ratioP2;P2;SDS_P1;SDS_P2;PMS_P1;PMS_P2;Temp;Humidity;BMP_temperature;BMP_pressure;BME280_temperature;BME280_humidity;BME280_pressure;Samples;Min_cycle;Max_cycle;Signal;HPM_P1;HPM_P2
2022/01/13 00:01:28;;;;;;;0.10;0.10;;;0.50;99.90;;;;;;5091315;28;20047;-66
2022/01/13 00:03:53;;;;;;;0.45;0.45;;;0.50;99.90;;;;;;5098598;28;20088;-67
2022/01/13 00:06:19;;;;;;;0.10;0.10;;;0.60;99.90;;;;;;5096256;28;20028;-67
2022/01/13 00:08:45;;;;;;;1.20;1.20;;;0.60;99.90;;;;;;5091339;28;20020;-67
2022/01/13 00:11:10;;;;;;;1.27;1.27;;;0.60;99.90;;;;;;5096095;28;20031;-66
2022/01/13 00:13:52;;;;;;;1.08;1.08;;;0.70;99.90;;;;;;5072897;28;20485;-66
2022/01/13 00:16:38;;;;;;;0.10;0.10;;;0.70;99.90;;;;;;5090548;28;20056;-68
2022/01/13 00:21:51;;;;;;;0.20;0.20;;;0.70;99.90;;;;;;5095863;28;20028;-67
2022/01/13 00:24:17;;;;;;;1.13;1.13;;;1.40;99.90;;;;;;5102825;28;20027;-67
2022/01/13 00:26:43;;;;;;;0.75;0.75;;;0.60;99.90;;;;;;5118106;27;20039;-67
2022/01/13 00:29:09;;;;;;;0.10;0.10;;;0.60;99.90;;;;;;5126576;27;20035;-66
2022/01/13 00:31:39;;;;;;;0.10;0.10;;;0.70;99.90;;;;;;5131548;27;20087;-67
2022/01/13 00:34:06;;;;;;;0.35;0.35;;;0.70;99.90;;;;;;5122644;27;20051;-66
2022/01/13 00:36:35;;;;;;;0.10;0.10;;;0.70;99.90;;;;;;5099847;28;20028;-66
2022/01/13 00:39:03;;;;;;;0.10;0.10;;;0.60;99.90;;;;;;5090696;28;20091;-65
2022/01/13 00:41:29;;;;;;;0.10;0.10;;;0.60;99.90;;;;;;5090778;28;20038;-66
2022/01/13 00:43:59;;;;;;;0.10;0.10;;;0.60;99.90;;;;;;5098415;27;20027;-66
2022/01/13 00:46:30;;;;;;;0.20;0.20;;;0.70;99.90;;;;;;5127599;27;20069;-66
2022/01/13 00:48:56;;;;;;;0.10;0.10;;;0.80;99.90;;;;;;5122916;27;20032;-66
2022/01/13 00:51:23;;;;;;;0.10;0.10;;;0.90;99.90;;;;;;5090542;28;20513;-67
2022/01/13 00:53:50;;;;;;;0.10;0.10;;;0.90;99.90;;;;;;5090269;28;20020;-66
2022/01/13 00:56:17;;;;;;;0.30;0.30;;;0.90;99.90;;;;;;5095626;28;20028;-67
2022/01/13 00:58:43;;;;;;;0.10;0.10;;;1.00;99.90;;;;;;5095826;28;20469;-66
2022/01/13 01:01:09;;;;;;;1.27;1.27;;;1.10;99.90;;;;;;5097907;27;20351;-67
2022/01/13 01:03:36;;;;;;;0.10;0.10;;;1.10;99.90;;;;;;5128119;27;20143;-65
2022/01/13 01:06:04;;;;;;;0.10;0.10;;;1.10;99.90;;;;;;5089581;28;20039;-67
2022/01/13 01:08:31;;;;;;;0.15;0.15;;;1.10;99.90;;;;;;5110607;28;20038;-66
2022/01/13 01:11:00;;;;;;;0.75;0.75;;;1.10;99.90;;;;;;5099610;28;20489;-67
2022/01/13 01:13:28;;;;;;;0.10;0.10;;;1.10;99.90;;;;;;5094408;28;20516;-66
2022/01/13 01:15:56;;;;;;;1.33;1.27;;;1.10;99.90;;;;;;5104571;28;20062;-67
2022/01/13 01:29:04;;;;;;;0.10;0.10;;;1.00;99.90;;;;;;5126914;27;20098;-67
2022/01/13 01:31:34;;;;;;;0.10;0.10;;;1.00;99.90;;;;;;5089204;28;20489;-66
2022/01/13 01:36:32;;;;;;;0.38;0.38;;;1.20;99.90;;;;;;5088205;28;20031;-66
2022/01/13 01:38:59;;;;;;;0.10;0.10;;;1.10;99.90;;;;;;5105718;27;20026;-66
2022/01/13 01:41:26;;;;;;;0.10;0.10;;;1.20;99.90;;;;;;5114044;27;20020;-67
2022/01/13 01:43:55;;;;;;;0.13;0.13;;;1.20;99.90;;;;;;5125446;27;20034;-67
2022/01/13 01:46:20;;;;;;;0.10;0.10;;;1.20;99.90;;;;;;5093658;28;20042;-66
2022/01/13 01:48:46;;;;;;;0.10;0.10;;;1.10;99.90;;;;;;5091589;28;20482;-67
2022/01/13 01:51:11;;;;;;;0.10;0.10;;;1.10;99.90;;;;;;5094374;28;20131;-67
2022/01/13 01:53:37;;;;;;;0.80;0.80;;;1.10;99.90;;;;;;5072990;28;20481;-67
2022/01/13 01:56:03;;;;;;;0.20;0.20;;;1.10;99.90;;;;;;5096580;28;20093;-67
2022/01/13 01:58:29;;;;;;;2.47;2.33;;;1.10;99.90;;;;;;5115755;28;20039;-66
2022/01/13 02:00:55;;;;;;;1.50;1.40;;;1.10;99.90;;;;;;5107564;28;20023;-67
2022/01/13 02:03:24;;;;;;;2.30;1.88;;;1.20;99.90;;;;;;5116332;28;20094;-67
2022/01/13 02:05:49;;;;;;;0.65;0.65;;;1.20;99.90;;;;;;5105289;28;20039;-66
2022/01/13 02:08:15;;;;;;;0.90;0.90;;;1.20;99.90;;;;;;5092855;28;20030;-67
2022/01/13 02:10:42;;;;;;;0.10;0.10;;;1.20;99.90;;;;;;5104302;28;20489;-66
2022/01/13 02:13:11;;;;;;;0.10;0.10;;;1.30;99.90;;;;;;5096189;27;20259;-66
2022/01/13 02:18:07;;;;;;;0.20;0.20;;;1.40;99.90;;;;;;5092254;28;20055;-66
2022/01/13 02:20:50;;;;;;;0.15;0.15;;;1.30;99.90;;;;;;5088497;28;20032;-66
2022/01/13 02:23:36;;;;;;;;;;;1.30;99.90;;;;;;5096727;28;20073;-66
2022/01/13 02:26:03;;;;;;;0.10;0.10;;;1.20;99.90;;;;;;5082738;28;19940;-66
2022/01/13 02:28:29;;;;;;;0.68;0.68;;;1.20;99.90;;;;;;5083450;28;20024;-66
2022/01/13 02:30:55;;;;;;;3.33;3.03;;;1.10;99.90;;;;;;5095525;28;20389;-66
2022/01/13 02:33:21;;;;;;;0.10;0.10;;;1.10;99.90;;;;;;5096080;28;20082;-65
2022/01/13 02:35:47;;;;;;;0.10;0.10;;;1.00;99.90;;;;;;5085134;28;20413;-66
2022/01/13 02:38:13;;;;;;;0.10;0.10;;;1.00;99.90;;;;;;5095580;28;20028;-66
2022/01/13 02:40:39;;;;;;;0.10;0.10;;;0.90;99.90;;;;;;5095463;28;20065;-66
2022/01/13 02:43:05;;;;;;;0.13;0.13;;;1.00;99.90;;;;;;5092023;28;20032;-65
2022/01/13 02:45:37;;;;;;;1.33;1.23;;;1.00;99.90;;;;;;5075361;28;20063;-65
2022/01/13 02:50:35;;;;;;;0.10;0.10;;;1.10;99.90;;;;;;5095293;28;20507;-66
2022/01/13 02:53:03;;;;;;;0.10;0.10;;;1.00;99.90;;;;;;5091408;28;20044;-66
2022/01/13 02:55:28;;;;;;;0.10;0.10;;;1.80;99.90;;;;;;5075035;28;20060;-66
2022/01/13 02:57:54;;;;;;;0.10;0.10;;;1.10;99.90;;;;;;5075309;28;20040;-66
2022/01/13 03:00:20;;;;;;;0.40;0.40;;;1.10;99.90;;;;;;5092035;28;20024;-67
2022/01/13 03:02:47;;;;;;;0.20;0.20;;;1.20;99.90;;;;;;5095431;28;20477;-64
2022/01/13 03:05:15;;;;;;;0.10;0.10;;;1.20;99.90;;;;;;5093991;28;20057;-66
2022/01/13 03:07:40;;;;;;;0.32;0.32;;;1.20;99.90;;;;;;5074945;28;20036;-65
2022/01/13 03:10:07;;;;;;;0.82;0.82;;;1.20;99.90;;;;;;5088741;28;20178;-65
2022/01/13 03:12:36;;;;;;;1.17;1.13;;;1.20;99.90;;;;;;5103876;28;20183;-65
2022/01/13 03:15:02;;;;;;;0.65;0.65;;;1.10;99.90;;;;;;5087938;28;20021;-65
2022/01/13 03:17:28;;;;;;;0.25;0.25;;;1.10;99.90;;;;;;5060938;28;20039;-64
2022/01/13 03:19:54;;;;;;;0.10;0.10;;;1.10;99.90;;;;;;5071666;28;20394;-64
2022/01/13 03:22:19;;;;;;;0.47;0.47;;;1.10;99.90;;;;;;5071977;28;20509;-65
2022/01/13 03:24:45;;;;;;;1.30;1.02;;;1.10;99.90;;;;;;5076968;28;20032;-66
2022/01/13 03:27:18;;;;;;;0.43;0.43;;;1.20;99.90;;;;;;5078690;28;20486;-65
2022/01/13 03:29:44;;;;;;;0.10;0.10;;;1.00;99.90;;;;;;5072554;28;20078;-65
2022/01/13 03:32:10;;;;;;;2.05;1.95;;;0.90;99.90;;;;;;5071782;28;20044;-65
2022/01/13 03:34:35;;;;;;;0.10;0.10;;;0.80;99.90;;;;;;5084088;28;20036;-65
2022/01/13 03:37:01;;;;;;;0.17;0.17;;;0.80;99.90;;;;;;5083570;28;20040;-65
2022/01/13 03:39:28;;;;;;;0.10;0.10;;;0.80;99.90;;;;;;5091976;28;20382;-65
2022/01/13 03:41:54;;;;;;;0.10;0.10;;;0.80;99.90;;;;;;5091779;28;20050;-65
2022/01/13 03:44:28;;;;;;;0.68;0.68;;;0.70;99.90;;;;;;5087296;28;20473;-65
2022/01/13 03:46:56;;;;;;;0.73;0.73;;;0.70;99.90;;;;;;5078221;28;20119;-65
2022/01/13 03:49:21;;;;;;;0.10;0.10;;;0.60;99.90;;;;;;5071826;28;20021;-65
2022/01/13 03:51:55;;;;;;;0.10;0.10;;;0.60;99.90;;;;;;5057736;28;20055;-65
2022/01/13 03:54:21;;;;;;;0.10;0.10;;;0.70;99.90;;;;;;5073568;28;20057;-65
2022/01/13 03:57:13;;;;;;;0.25;0.25;;;0.70;99.90;;;;;;5091410;28;20032;-65
2022/01/13 04:00:04;;;;;;;0.10;0.10;;;0.80;99.90;;;;;;5102510;28;20474;-65
2022/01/13 04:02:29;;;;;;;0.10;0.10;;;0.80;99.90;;;;;;5086793;28;20099;-65
2022/01/13 04:04:55;;;;;;;0.10;0.10;;;0.80;99.90;;;;;;5091433;28;20103;-65
2022/01/13 04:07:23;;;;;;;0.30;0.30;;;0.80;99.90;;;;;;5093025;28;20063;-65
2022/01/13 04:09:49;;;;;;;1.45;1.35;;;0.80;99.90;;;;;;5096042;28;20062;-66
2022/01/13 04:12:16;;;;;;;0.25;0.25;;;0.80;99.90;;;;;;5090659;28;20060;-65
2022/01/13 04:17:21;;;;;;;0.10;0.10;;;0.80;99.90;;;;;;5069825;28;20033;-65
2022/01/13 04:19:47;;;;;;;0.10;0.10;;;0.80;99.90;;;;;;5070970;28;20168;-65
2022/01/13 04:22:14;;;;;;;4.65;3.58;;;0.80;99.90;;;;;;5071318;28;20107;-65
2022/01/13 04:24:47;;;;;;;0.10;0.10;;;0.90;99.90;;;;;;5070565;28;20101;-65
2022/01/13 04:27:43;;;;;;;;;;;0.90;99.90;;;;;;5071291;28;20035;-64
2022/01/13 04:32:41;;;;;;;1.00;1.00;;;1.00;99.90;;;;;;5081453;28;20097;-64
2022/01/13 04:35:08;;;;;;;0.13;0.13;;;1.00;99.90;;;;;;5090422;28;20032;-66
2022/01/13 04:37:34;;;;;;;0.20;0.20;;;1.00;99.90;;;;;;5086363;28;20103;-66
2022/01/13 04:39:59;;;;;;;0.10;0.10;;;0.90;99.90;;;;;;5090917;28;20115;-65
2022/01/13 04:42:30;;;;;;;0.15;0.15;;;0.80;99.90;;;;;;5080543;28;20031;-64
2022/01/13 04:44:56;;;;;;;4.95;1.95;;;0.80;99.90;;;;;;5090259;28;20024;-65
2022/01/13 04:47:21;;;;;;;0.75;0.75;;;0.80;99.90;;;;;;5090646;28;20130;-68
2022/01/13 04:49:47;;;;;;;0.10;0.10;;;0.80;99.90;;;;;;5090480;28;20522;-66
2022/01/13 04:52:12;;;;;;;1.35;1.35;;;0.80;99.90;;;;;;5077096;28;20063;-66
2022/01/13 04:54:38;;;;;;;0.10;0.10;;;0.80;99.90;;;;;;5089972;28;20167;-65
2022/01/13 04:57:15;;;;;;;2.05;1.95;;;0.80;99.90;;;;;;5090463;28;20028;-65
2022/01/13 04:59:41;;;;;;;0.10;0.10;;;0.30;99.90;;;;;;5096544;28;20011;-65
2022/01/13 05:02:06;;;;;;;0.10;0.10;;;1.00;99.90;;;;;;5074732;28;20024;-65
2022/01/13 05:04:32;;;;;;;0.10;0.10;;;1.00;99.90;;;;;;5101809;28;20030;-66
2022/01/13 05:06:58;;;;;;;0.10;0.10;;;1.00;99.90;;;;;;5098093;28;20110;-65
2022/01/13 05:09:23;;;;;;;4.30;3.50;;;1.10;99.90;;;;;;5084000;28;20109;-66
2022/01/13 05:11:49;;;;;;;0.30;0.30;;;1.10;99.90;;;;;;5071582;28;20471;-66
2022/01/13 05:14:15;;;;;;;0.88;0.88;;;1.00;99.90;;;;;;5089812;28;20024;-65
2022/01/13 05:19:32;;;;;;;0.10;0.10;;;0.80;99.90;;;;;;5076430;28;20036;-65
2022/01/13 05:24:24;;;;;;;9.32;6.90;;;0.80;99.90;;;;;;5090238;28;20088;-65
2022/01/13 05:26:50;;;;;;;0.10;0.10;;;0.70;99.90;;;;;;5088535;28;20285;-65
2022/01/13 05:29:19;;;;;;;0.10;0.10;;;0.20;99.90;;;;;;5079843;28;20532;-65
2022/01/13 05:31:46;;;;;;;0.10;0.10;;;0.80;99.90;;;;;;5089982;28;20031;-65
2022/01/13 05:34:12;;;;;;;1.67;1.65;;;0.70;99.90;;;;;;5089571;28;20105;-65
2022/01/13 05:36:37;;;;;;;0.10;0.10;;;0.70;99.90;;;;;;5076772;28;20044;-66
2022/01/13 05:39:04;;;;;;;0.10;0.10;;;0.70;99.90;;;;;;5087416;28;20457;-65
2022/01/13 05:41:31;;;;;;;0.88;0.85;;;0.70;99.90;;;;;;5085592;28;20031;-66
2022/01/13 05:43:57;;;;;;;0.10;0.10;;;0.70;99.90;;;;;;5088375;28;20089;-66
2022/01/13 05:46:23;;;;;;;6.45;0.85;;;0.70;99.90;;;;;;5070964;28;20031;-66
2022/01/13 05:48:48;;;;;;;0.10;0.10;;;0.80;99.90;;;;;;5069676;28;20028;-66
2022/01/13 05:51:14;;;;;;;0.43;0.43;;;0.80;99.90;;;;;;5069446;28;20547;-66
2022/01/13 05:53:40;;;;;;;0.30;0.30;;;0.80;99.90;;;;;;5085623;28;20475;-66
2022/01/13 05:56:05;;;;;;;0.20;0.20;;;0.90;99.90;;;;;;5071602;28;20024;-66
2022/01/13 05:58:31;;;;;;;0.10;0.10;;;0.70;99.90;;;;;;5074647;28;20020;-65
2022/01/13 06:00:57;;;;;;;0.10;0.10;;;0.70;99.90;;;;;;5100972;28;20509;-66
2022/01/13 06:03:23;;;;;;;0.20;0.20;;;0.80;99.90;;;;;;5083139;28;20032;-66
2022/01/13 06:05:48;;;;;;;0.25;0.25;;;0.90;99.90;;;;;;5089283;28;20431;-66
2022/01/13 06:08:14;;;;;;;0.10;0.10;;;0.90;99.90;;;;;;5087440;28;20366;-66
2022/01/13 06:10:43;;;;;;;9.13;4.57;;;0.90;99.90;;;;;;5089379;28;20036;-66
2022/01/13 06:13:09;;;;;;;0.10;0.10;;;0.80;99.90;;;;;;5081223;28;20020;-65
2022/01/13 06:15:37;;;;;;;0.15;0.15;;;0.80;99.90;;;;;;5069087;28;20020;-65
2022/01/13 06:18:03;;;;;;;0.75;0.75;;;0.80;99.90;;;;;;5069215;28;20118;-66
2022/01/13 06:20:29;;;;;;;1.02;1.02;;;0.80;99.90;;;;;;5069281;28;20031;-66
2022/01/13 06:22:55;;;;;;;2.20;1.35;;;0.80;99.90;;;;;;5078235;28;20024;-66
2022/01/13 06:25:20;;;;;;;0.45;0.45;;;0.90;99.90;;;;;;5089001;28;20108;-66
2022/01/13 06:27:46;;;;;;;0.10;0.10;;;0.80;99.90;;;;;;5089307;28;20027;-65
2022/01/13 06:30:14;;;;;;;3.30;1.48;;;0.80;99.90;;;;;;5076977;28;20047;-64
2022/01/13 06:32:41;;;;;;;0.10;0.10;;;0.80;99.90;;;;;;5088683;28;20032;-65
2022/01/13 06:35:07;;;;;;;0.10;0.10;;;0.80;99.90;;;;;;5088914;28;20017;-66
2022/01/13 06:37:33;;;;;;;1.60;1.50;;;0.80;99.90;;;;;;5083158;28;20571;-65
2022/01/13 06:40:01;;;;;;;0.57;0.57;;;0.70;99.90;;;;;;5089303;28;20103;-65
2022/01/13 06:42:27;;;;;;;5.68;5.10;;;0.30;99.90;;;;;;5091018;28;20489;-65
2022/01/13 06:44:53;;;;;;;1.15;0.98;;;0.50;99.90;;;;;;5090158;28;20089;-65
2022/01/13 06:47:18;;;;;;;0.10;0.10;;;0.70;99.90;;;;;;5092248;28;20063;-65
2022/01/13 06:49:44;;;;;;;1.48;1.38;;;0.80;99.90;;;;;;5093004;28;20069;-65
2022/01/13 06:52:10;;;;;;;0.50;0.50;;;0.80;99.90;;;;;;5080006;28;20442;-65
2022/01/13 06:54:36;;;;;;;0.10;0.10;;;0.80;99.90;;;;;;5080158;28;20024;-65
2022/01/13 06:57:02;;;;;;;0.22;0.22;;;0.90;99.90;;;;;;5100587;28;20024;-65
2022/01/13 06:59:27;;;;;;;0.10;0.10;;;0.90;99.90;;;;;;5096861;28;20391;-65
2022/01/13 07:01:53;;;;;;;0.20;0.20;;;0.90;99.90;;;;;;5087126;28;20109;-65
2022/01/13 07:04:19;;;;;;;0.10;0.10;;;0.90;99.90;;;;;;5095141;28;20392;-65
2022/01/13 07:06:45;;;;;;;1.52;1.50;;;0.90;99.90;;;;;;5107961;28;20054;-65
2022/01/13 07:09:14;;;;;;;0.10;0.10;;;0.90;99.90;;;;;;5095023;28;20497;-65
2022/01/13 07:11:41;;;;;;;0.10;0.10;;;0.90;99.90;;;;;;5077775;28;20027;-65
2022/01/13 07:14:06;;;;;;;0.10;0.10;;;0.90;99.90;;;;;;5096495;28;20074;-65
2022/01/13 07:16:33;;;;;;;0.10;0.10;;;1.60;99.90;;;;;;5091960;28;20032;-66
2022/01/13 07:18:59;;;;;;;0.10;0.10;;;0.90;99.90;;;;;;5086412;28;20102;-69
2022/01/13 07:24:00;;;;;;;0.20;0.20;;;1.00;99.90;;;;;;5168531;22;20515;-67
2022/01/13 07:26:26;;;;;;;0.47;0.47;;;0.90;99.90;;;;;;5040007;28;20025;-66
2022/01/13 07:28:51;;;;;;;0.40;0.40;;;0.90;99.90;;;;;;5049175;28;20118;-67
2022/01/13 07:31:17;;;;;;;0.20;0.20;;;0.90;99.90;;;;;;5050385;28;20053;-68
2022/01/13 07:33:43;;;;;;;0.10;0.10;;;1.00;99.90;;;;;;5048917;28;20041;-67
2022/01/13 07:36:09;;;;;;;0.35;0.35;;;1.10;99.90;;;;;;5047548;28;20108;-68
2022/01/13 07:38:35;;;;;;;0.20;0.20;;;1.20;99.90;;;;;;5049855;28;20029;-66
2022/01/13 07:41:01;;;;;;;0.22;0.22;;;1.20;99.90;;;;;;5050251;28;20066;-67
2022/01/13 07:43:27;;;;;;;0.10;0.10;;;1.30;99.90;;;;;;5050272;28;20486;-67
2022/01/13 07:45:53;;;;;;;0.10;0.10;;;1.30;99.90;;;;;;5043857;28;20044;-65
2022/01/13 07:48:20;;;;;;;1.55;1.48;;;1.20;99.90;;;;;;5044232;22;20057;-67
2022/01/13 07:50:46;;;;;;;0.10;0.10;;;1.10;99.90;;;;;;5026159;28;20040;-66
2022/01/13 07:53:12;;;;;;;0.10;0.10;;;0.70;99.90;;;;;;5029662;28;20053;-66
2022/01/13 07:55:38;;;;;;;1.02;1.02;;;0.90;99.90;;;;;;5031110;28;20490;-66
2022/01/13 07:58:04;;;;;;;0.10;0.10;;;0.80;99.90;;;;;;5029394;28;20025;-67
2022/01/13 08:00:33;;;;;;;0.10;0.10;;;1.10;99.90;;;;;;5020949;28;20122;-70
2022/01/13 08:02:58;;;;;;;0.10;0.10;;;1.10;99.90;;;;;;5007634;28;20804;-66
2022/01/13 08:05:24;;;;;;;4.28;4.05;;;1.10;99.90;;;;;;5005342;28;20056;-67
2022/01/13 08:07:50;;;;;;;0.20;0.20;;;1.10;99.90;;;;;;5006585;28;20034;-68
2022/01/13 08:10:15;;;;;;;0.10;0.10;;;1.20;99.90;;;;;;5011474;28;20029;-67
2022/01/13 08:12:41;;;;;;;0.20;0.20;;;1.30;99.90;;;;;;5015191;28;20064;-67
2022/01/13 08:15:13;;;;;;;0.15;0.15;;;1.30;99.90;;;;;;5018169;28;20467;-67
2022/01/13 08:20:29;;;;;;;0.40;0.40;;;1.30;99.90;;;;;;5009015;28;20025;-66
2022/01/13 08:22:55;;;;;;;0.82;0.77;;;1.40;99.90;;;;;;5012820;28;20108;-67
2022/01/13 08:25:21;;;;;;;0.22;0.22;;;1.40;99.90;;;;;;4999460;28;20053;-66
2022/01/13 08:27:48;;;;;;;0.10;0.10;;;1.40;99.90;;;;;;5007846;28;20034;-66
2022/01/13 08:30:14;;;;;;;0.10;0.10;;;1.50;99.90;;;;;;5017938;28;20018;-67
2022/01/13 08:32:40;;;;;;;0.55;0.52;;;1.50;99.90;;;;;;5007381;28;20037;-66
2022/01/13 08:35:07;;;;;;;1.33;1.23;;;1.60;99.90;;;;;;5013199;28;20545;-67
2022/01/13 08:37:33;;;;;;;0.10;0.10;;;1.60;99.90;;;;;;5007616;28;20087;-66
2022/01/13 08:40:00;;;;;;;0.10;0.10;;;1.70;99.90;;;;;;5010822;28;20114;-66
2022/01/13 08:42:27;;;;;;;0.40;0.40;;;1.70;99.90;;;;;;5012099;28;20069;-66
2022/01/13 08:44:53;;;;;;;0.10;0.10;;;1.70;99.90;;;;;;5018236;28;20060;-65
2022/01/13 08:47:19;;;;;;;0.45;0.45;;;1.60;99.90;;;;;;5011264;28;20034;-66
2022/01/13 08:49:45;;;;;;;0.17;0.17;;;1.60;99.90;;;;;;5013854;28;20062;-66
2022/01/13 08:52:11;;;;;;;0.10;0.10;;;1.60;99.90;;;;;;5023568;28;20029;-66
2022/01/13 08:54:37;;;;;;;0.10;0.10;;;1.60;99.90;;;;;;5010386;28;20033;-67
2022/01/13 08:57:02;;;;;;;0.10;0.10;;;1.50;99.90;;;;;;5012131;28;20502;-66
2022/01/13 08:59:28;;;;;;;0.10;0.10;;;1.50;99.90;;;;;;5014756;28;20529;-67
2022/01/13 09:01:54;;;;;;;0.10;0.10;;;1.50;99.90;;;;;;5022237;28;20076;-67
2022/01/13 09:04:21;;;;;;;0.10;0.10;;;1.50;99.90;;;;;;5019308;28;20422;-67
2022/01/13 09:06:47;;;;;;;0.10;0.10;;;1.50;99.90;;;;;;5014670;28;20022;-67
2022/01/13 09:09:15;;;;;;;0.10;0.10;;;1.50;99.90;;;;;;5012953;28;20505;-67
2022/01/13 09:11:42;;;;;;;0.10;0.10;;;1.60;99.90;;;;;;5015698;28;20033;-66
2022/01/13 09:14:08;;;;;;;0.10;0.10;;;1.70;99.90;;;;;;5009330;28;20026;-67
2022/01/13 09:16:41;;;;;;;0.10;0.10;;;1.70;99.90;;;;;;5012465;28;20471;-66
2022/01/13 09:19:12;;;;;;;0.10;0.10;;;1.60;99.90;;;;;;5016054;28;20024;-66
2022/01/13 09:21:43;;;;;;;0.25;0.25;;;1.60;99.90;;;;;;5013545;28;20096;-67
2022/01/13 09:24:13;;;;;;;0.10;0.10;;;1.70;99.90;;;;;;5019730;28;20474;-66
2022/01/13 09:26:39;;;;;;;0.10;0.10;;;1.80;99.90;;;;;;5010205;28;20030;-67
2022/01/13 09:29:06;;;;;;;0.10;0.10;;;1.70;99.90;;;;;;5009373;28;20034;-67
2022/01/13 09:31:33;;;;;;;1.63;1.55;;;1.60;99.90;;;;;;5012265;28;20018;-67
2022/01/13 09:34:01;;;;;;;0.70;0.70;;;1.60;99.90;;;;;;5010583;28;20025;-67
2022/01/13 09:36:27;;;;;;;13.30;1.95;;;1.70;99.90;;;;;;5006430;28;20018;-68
2022/01/13 09:38:53;;;;;;;0.10;0.10;;;2.00;99.90;;;;;;5015633;28;20026;-67
2022/01/13 09:41:21;;;;;;;0.20;0.20;;;2.20;99.90;;;;;;5010120;28;20036;-67
2022/01/13 09:43:47;;;;;;;0.10;0.10;;;2.30;99.90;;;;;;5018218;28;20028;-67
2022/01/13 09:46:13;;;;;;;0.50;0.50;;;2.30;99.90;;;;;;5005593;28;20029;-67
2022/01/13 09:48:40;;;;;;;0.10;0.10;;;2.20;99.90;;;;;;5008346;28;20022;-66
2022/01/13 09:51:06;;;;;;;0.10;0.10;;;2.20;99.90;;;;;;5007759;28;20119;-66
2022/01/13 09:53:33;;;;;;;0.55;0.55;;;2.10;99.90;;;;;;5013706;28;20084;-66
2022/01/13 09:55:58;;;;;;;0.10;0.10;;;2.00;99.90;;;;;;5015918;28;20017;-67
2022/01/13 09:58:24;;;;;;;0.95;0.75;;;2.00;99.90;;;;;;5007236;28;20100;-68
2022/01/13 10:00:50;;;;;;;0.20;0.20;;;2.10;99.90;;;;;;5008623;28;20037;-67
2022/01/13 10:03:18;;;;;;;0.10;0.10;;;2.10;99.90;;;;;;5009768;28;20116;-67
2022/01/13 10:05:52;;;;;;;0.10;0.10;;;2.10;99.90;;;;;;5012774;28;20053;-66
2022/01/13 10:08:22;;;;;;;0.10;0.10;;;2.20;99.90;;;;;;5009393;28;20091;-66
2022/01/13 10:10:49;;;;;;;0.75;0.75;;;2.30;99.90;;;;;;5003266;28;20104;-67
2022/01/13 10:13:23;;;;;;;0.15;0.15;;;2.40;99.90;;;;;;5008196;28;20022;-69
2022/01/13 10:18:43;;;;;;;4.47;3.10;;;2.60;99.90;;;;;;5004374;28;20036;-68
2022/01/13 10:21:18;;;;;;;2.08;1.98;;;2.50;99.90;;;;;;5003038;28;20494;-68
2022/01/13 10:24:06;;;;;;;0.10;0.10;;;2.40;99.90;;;;;;5011415;28;20056;-68
2022/01/13 10:26:33;;;;;;;2.38;2.17;;;2.40;99.90;;;;;;5008481;28;20080;-67
2022/01/13 10:28:58;;;;;;;0.10;0.10;;;2.30;99.90;;;;;;5010623;28;20022;-67
2022/01/13 10:31:51;;;;;;;0.38;0.38;;;2.40;99.90;;;;;;5004424;28;20412;-68
2022/01/13 10:34:23;;;;;;;2.15;1.98;;;2.40;99.90;;;;;;5008994;28;20037;-68
2022/01/13 10:36:59;;;;;;;1.90;1.85;;;2.30;99.90;;;;;;5009586;28;20034;-69
2022/01/13 10:39:44;;;;;;;0.15;0.15;;;2.30;99.90;;;;;;5009800;28;20383;-68
2022/01/13 10:44:55;;;;;;;2.40;2.25;;;2.50;99.90;;;;;;5015321;28;20064;-67
2022/01/13 10:47:21;;;;;;;0.10;0.10;;;2.50;99.90;;;;;;5013075;28;20087;-68
2022/01/13 10:49:50;;;;;;;0.10;0.10;;;2.60;99.90;;;;;;5016304;28;20041;-68
2022/01/13 10:52:24;;;;;;;2.08;1.30;;;2.50;99.90;;;;;;4995588;28;20053;-67
2022/01/13 10:55:08;;;;;;;1.90;1.60;;;2.50;99.90;;;;;;4987788;28;20021;-67
2022/01/13 10:57:36;;;;;;;0.20;0.20;;;2.40;99.90;;;;;;5011091;28;20021;-68
2022/01/13 11:00:05;;;;;;;0.10;0.10;;;2.50;99.90;;;;;;5010465;28;20026;-68
2022/01/13 11:02:30;;;;;;;0.10;0.10;;;2.50;99.90;;;;;;5012540;28;20048;-67
2022/01/13 11:05:01;;;;;;;0.10;0.10;;;2.50;99.90;;;;;;5015272;28;20025;-67
2022/01/13 11:07:27;;;;;;;0.08;0.08;;;2.50;99.90;;;;;;5010078;28;20069;-68
2022/01/13 11:09:59;;;;;;;1.23;1.13;;;2.50;99.90;;;;;;5009752;28;20029;-68
2022/01/13 11:12:30;;;;;;;0.10;0.10;;;2.70;99.90;;;;;;5003885;28;20499;-67
2022/01/13 11:15:00;;;;;;;0.10;0.10;;;2.80;99.90;;;;;;5005145;28;20025;-66
2022/01/13 11:17:28;;;;;;;0.10;0.10;;;2.80;99.90;;;;;;5012464;28;20014;-67
2022/01/13 11:19:55;;;;;;;0.10;0.10;;;2.80;99.90;;;;;;5019019;28;20120;-66
2022/01/13 11:22:22;;;;;;;0.45;0.45;;;2.90;99.90;;;;;;5008504;28;20079;-68
2022/01/13 11:24:48;;;;;;;2.08;1.55;;;2.90;99.90;;;;;;5015532;28;20104;-67
2022/01/13 11:27:17;;;;;;;0.28;0.28;;;3.00;99.90;;;;;;5004680;28;20506;-67
2022/01/13 11:29:45;;;;;;;0.38;0.38;;;3.00;99.90;;;;;;4990699;28;20049;-67
2022/01/13 11:32:11;;;;;;;0.10;0.10;;;3.00;99.90;;;;;;5019087;28;20117;-67
2022/01/13 11:34:38;;;;;;;0.10;0.10;;;3.00;99.90;;;;;;5022337;28;20029;-67
2022/01/13 11:37:05;;;;;;;0.10;0.10;;;3.00;99.90;;;;;;4999415;28;20021;-71
2022/01/13 11:39:40;;;;;;;4.63;2.72;;;3.10;99.90;;;;;;5011641;28;20117;-70
2022/01/13 11:42:08;;;;;;;0.10;0.10;;;3.20;99.90;;;;;;5014300;28;20091;-70
2022/01/13 11:44:35;;;;;;;0.10;0.10;;;3.40;99.90;;;;;;4995920;28;20030;-70
2022/01/13 11:47:07;;;;;;;1.98;1.85;;;3.40;99.90;;;;;;5015102;28;20021;-71
2022/01/13 11:49:55;;;;;;;0.30;0.30;;;3.50;99.90;;;;;;5003200;28;20038;-71
2022/01/13 11:52:53;;;;;;;0.10;0.10;;;3.50;99.90;;;;;;5016069;28;20026;-67
2022/01/13 11:55:19;;;;;;;0.40;0.40;;;3.50;99.90;;;;;;5008886;28;20080;-68
2022/01/13 11:57:44;;;;;;;0.10;0.10;;;3.50;99.90;;;;;;4992094;28;20037;-69
2022/01/13 12:00:16;;;;;;;0.10;0.10;;;3.60;99.90;;;;;;5022163;28;20033;-67
2022/01/13 12:02:44;;;;;;;0.10;0.10;;;3.80;99.90;;;;;;5011213;28;20033;-67
2022/01/13 12:05:18;;;;;;;0.45;0.45;;;3.70;99.90;;;;;;5012604;28;20022;-68
2022/01/13 12:07:44;;;;;;;0.10;0.10;;;3.70;99.90;;;;;;5015542;28;20053;-68
2022/01/13 12:10:29;;;;;;;0.30;0.30;;;3.80;99.90;;;;;;5014595;28;20029;-68
2022/01/13 12:12:55;;;;;;;0.35;0.35;;;4.00;99.90;;;;;;5008411;28;20029;-69
2022/01/13 12:15:23;;;;;;;3.45;3.25;;;3.90;99.90;;;;;;5009591;28;20018;-68
2022/01/13 12:17:55;;;;;;;0.68;0.68;;;3.90;99.90;;;;;;5012072;28;20029;-69
2022/01/13 12:23:43;;;;;;;0.10;0.10;;;3.90;99.90;;;;;;5017327;28;20048;-68
2022/01/13 12:26:30;;;;;;;0.65;0.65;;;3.90;99.90;;;;;;5006450;28;20030;-68
2022/01/13 12:29:08;;;;;;;0.10;0.10;;;4.00;99.90;;;;;;5008805;28;20133;-68
2022/01/13 12:31:34;;;;;;;0.10;0.10;;;4.10;99.90;;;;;;5013033;28;20049;-68
2022/01/13 12:33:59;;;;;;;0.10;0.10;;;4.10;99.90;;;;;;5014399;28;20032;-67
2022/01/13 12:36:25;;;;;;;0.77;0.77;;;4.10;99.90;;;;;;5017147;28;20025;-68
2022/01/13 12:38:58;;;;;;;0.10;0.10;;;4.10;99.90;;;;;;5011934;28;20018;-68
2022/01/13 12:41:26;;;;;;;0.10;0.10;;;4.00;99.90;;;;;;5009330;28;20022;-67
2022/01/13 12:44:12;;;;;;;0.10;0.10;;;4.10;99.90;;;;;;5016723;28;20022;-68
2022/01/13 12:46:39;;;;;;;0.50;0.50;;;4.10;99.90;;;;;;5014424;28;20037;-68
2022/01/13 12:49:05;;;;;;;0.20;0.20;;;4.10;99.90;;;;;;5012297;28;20022;-68
2022/01/13 12:51:31;;;;;;;0.10;0.10;;;4.20;99.90;;;;;;5012320;28;20104;-67
2022/01/13 12:53:57;;;;;;;0.17;0.17;;;4.10;99.90;;;;;;5013238;28;20570;-68
2022/01/13 12:56:28;;;;;;;0.17;0.17;;;4.20;99.90;;;;;;5008933;28;20030;-69
2022/01/13 12:59:01;;;;;;;0.10;0.10;;;4.30;99.90;;;;;;5001289;28;20116;-68
2022/01/13 13:01:29;;;;;;;0.30;0.30;;;4.30;99.90;;;;;;5008111;28;20022;-69
2022/01/13 13:04:06;;;;;;;0.10;0.10;;;4.30;99.90;;;;;;5009071;28;20364;-67
2022/01/13 13:06:33;;;;;;;0.15;0.15;;;4.30;99.90;;;;;;5007431;28;20022;-68
2022/01/13 13:09:19;;;;;;;0.10;0.10;;;4.30;99.90;;;;;;5010221;28;20046;-68
2022/01/13 13:11:56;;;;;;;0.20;0.20;;;4.40;99.90;;;;;;5011070;28;20391;-68
2022/01/13 13:14:33;;;;;;;0.10;0.10;;;4.30;99.90;;;;;;5008081;28;20026;-68
2022/01/13 13:16:59;;;;;;;0.10;0.10;;;4.50;99.90;;;;;;5002920;28;20029;-68
2022/01/13 13:19:24;;;;;;;0.10;0.10;;;4.50;99.90;;;;;;5004727;28;20224;-69
2022/01/13 13:21:54;;;;;;;0.10;0.10;;;4.60;99.90;;;;;;5013429;28;20505;-68
2022/01/13 13:24:22;;;;;;;0.43;0.43;;;4.50;99.90;;;;;;5010689;28;20030;-68
2022/01/13 13:26:48;;;;;;;0.10;0.10;;;4.50;99.90;;;;;;5001480;28;20075;-68
2022/01/13 13:29:23;;;;;;;2.28;1.05;;;4.60;99.90;;;;;;5012623;28;20025;-68
2022/01/13 13:31:52;;;;;;;0.98;0.98;;;4.60;99.90;;;;;;4999867;28;20030;-68
2022/01/13 13:34:18;;;;;;;0.10;0.10;;;5.40;99.90;;;;;;5019482;28;20037;-67
2022/01/13 13:36:47;;;;;;;0.10;0.10;;;6.80;99.90;;;;;;5021018;28;21072;-69
2022/01/13 13:39:15;;;;;;;0.10;0.10;;;8.00;99.90;;;;;;5015777;28;20068;-69
2022/01/13 13:41:46;;;;;;;0.10;0.10;;;8.80;99.90;;;;;;5018539;28;20045;-67
2022/01/13 13:44:18;;;;;;;0.10;0.10;;;9.50;99.90;;;;;;5013302;28;20022;-69
2022/01/13 13:46:44;;;;;;;3.72;1.42;;;9.90;95.40;;;;;;5003095;28;21541;-69
2022/01/13 13:49:11;;;;;;;0.10;0.10;;;10.20;93.00;;;;;;5012089;28;20665;-69